Air Resources Laboratory banner image
Air Resources Laboratory web site National Oceanic and Atmospheric Administration (NOAA)

nv metar


KBAM 160955Z AUTO 33006KT 10SM CLR 21/03 A3005 RMK AO1=
KDRA 160953Z AUTO 05011KT 10SM CLR 28/11 A2995 RMK AO2 SLP081 T02780111=
KEKO 160956Z AUTO 00000KT 10SM CLR 14/04 A3011 RMK AO2 SLP140 T01390044=
KELY 160953Z AUTO 18010KT 10SM CLR 11/06 A3021 RMK AO2 SLPNO T01110061=
KHTH 160955Z AUTO 12004KT 10SM CLR 23/05 A3001 RMK A01=
KINS 160958Z AUTO 02004KT 10SM SCT120 SCT160 BKN220 25/13 A2995 RMK AO2 SLP089
 T02540129=
KLAS 160956Z 00000KT 10SM FEW150 OVC180 28/14 A2988 RMK AO2 SLP088 T02780144=
KLOL 160953Z AUTO 09008KT 10SM CLR 17/M04 A2998 RMK AO2 SLP105 T01671039=
KLSV 160958Z 04008KT 10SM SCT170 28/14 A2985 RMK SLP082 WND DATA ESTMD
 ALSTG/SLP ESTMD=
KP68 160953Z AUTO 18007KT 16/07 A3017 RMK AO1 SLP126 T01560067=
KRNO 160955Z 20003KT 10SM FEW180 20/03 A3007 RMK AO2 SLP114 T02000033=
KTPH 160956Z AUTO 02005KT 10SM CLR 19/11 A3014 RMK AO2 SLP118 T01890106=
KVGT 160953Z AUTO 30005KT 10SM CLR 29/14 A2987 RMK AO2 SLP101 T02940144=
KWMC 160956Z AUTO 08007KT 10SM CLR 18/01 A3002 RMK AO2 SLP107 T01780011 $=